createdAt,value
2018-03-08T00:00:59.315Z,99450.45
2018-03-08T00:03:27.905Z,99440.78
2018-03-08T00:05:56.418Z,99446.60
2018-03-08T00:08:24.817Z,99447.09
2018-03-08T00:10:53.135Z,99451.34
2018-03-08T00:13:21.656Z,99445.05
2018-03-08T00:15:50.230Z,99444.58
2018-03-08T00:18:17.825Z,99444.65
2018-03-08T00:20:46.503Z,99446.42
2018-03-08T00:23:14.103Z,99442.97
2018-03-08T00:25:42.542Z,99448.12
2018-03-08T00:28:11.103Z,99451.34
2018-03-08T00:30:39.712Z,99448.75
2018-03-08T00:33:07.387Z,99453.85
2018-03-08T00:35:34.997Z,99448.33
2018-03-08T00:38:03.398Z,99452.80
2018-03-08T00:40:31.082Z,99459.59
2018-03-08T00:42:58.690Z,99456.56
2018-03-08T00:45:27.430Z,99451.24
2018-03-08T00:47:55.061Z,99451.14
2018-03-08T00:50:22.752Z,99449.48
2018-03-08T00:52:51.241Z,99449.20
2018-03-08T00:55:18.843Z,99449.90
2018-03-08T00:57:46.537Z,99456.80
2018-03-08T01:00:14.131Z,99453.59
2018-03-08T01:02:41.975Z,99442.94
2018-03-08T01:05:10.570Z,99454.42
2018-03-08T01:07:38.242Z,99449.67
2018-03-08T01:10:05.886Z,99457.00
2018-03-08T01:12:34.386Z,99456.81
2018-03-08T01:15:02.151Z,99452.32
2018-03-08T01:17:30.572Z,99455.45
2018-03-08T01:19:58.265Z,99449.11
2018-03-08T01:22:26.771Z,99448.63
2018-03-08T01:24:54.450Z,99451.47
2018-03-08T01:27:22.087Z,99453.91
2018-03-08T01:29:49.766Z,99452.53
2018-03-08T01:32:17.430Z,99452.95
2018-03-08T01:34:45.030Z,99454.40
2018-03-08T01:37:12.731Z,99445.52
2018-03-08T01:39:41.318Z,99452.66
2018-03-08T01:42:09.003Z,99452.63
2018-03-08T01:44:37.318Z,99464.76
2018-03-08T01:47:05.015Z,99458.41
2018-03-08T01:49:32.608Z,99453.20
2018-03-08T01:52:11.906Z,99449.34
2018-03-08T01:54:39.508Z,99460.19
2018-03-08T01:57:07.306Z,99464.66
2018-03-08T01:59:35.136Z,99457.03
2018-03-08T02:02:02.759Z,99464.77
2018-03-08T02:04:30.463Z,99465.98
2018-03-08T02:06:58.226Z,99462.87
2018-03-08T02:09:25.825Z,99464.70
2018-03-08T02:11:53.434Z,99462.67
2018-03-08T02:14:21.114Z,99462.22
2018-03-08T02:16:48.805Z,99465.98
2018-03-08T02:19:16.415Z,99461.52
2018-03-08T02:21:44.094Z,99467.44
2018-03-08T02:24:11.693Z,99466.05
2018-03-08T02:26:39.293Z,99468.11
2018-03-08T02:29:06.986Z,99471.05
2018-03-08T02:31:34.590Z,99476.64
2018-03-08T02:34:02.273Z,99484.18
2018-03-08T02:36:29.879Z,99480.38
2018-03-08T02:38:57.474Z,99477.09
2018-03-08T02:41:25.073Z,99476.71
2018-03-08T02:43:52.673Z,99481.41
2018-03-08T02:46:20.292Z,99482.22
2018-03-08T02:48:47.982Z,99487.56
2018-03-08T02:51:15.754Z,99489.62
2018-03-08T02:53:43.443Z,99488.05
2018-03-08T02:56:11.147Z,99490.10
2018-03-08T02:58:38.822Z,99487.72
2018-03-08T03:01:06.508Z,99496.54
2018-03-08T03:03:34.368Z,99495.03
2018-03-08T03:06:01.974Z,99498.86
2018-03-08T03:08:29.670Z,99491.59
2018-03-08T03:10:57.351Z,99490.39
2018-03-08T03:13:24.951Z,99496.38
2018-03-08T03:15:52.551Z,99491.32
2018-03-08T03:18:20.154Z,99492.73
2018-03-08T03:20:48.008Z,99501.06
2018-03-08T03:23:15.631Z,99495.59
2018-03-08T03:25:43.315Z,99504.73
2018-03-08T03:28:10.918Z,99494.80
2018-03-08T03:30:38.712Z,99505.33
2018-03-08T03:33:06.397Z,99505.78
2018-03-08T03:35:34.083Z,99504.30
2018-03-08T03:38:01.758Z,99501.91
2018-03-08T03:40:29.445Z,99497.50
2018-03-08T03:42:57.055Z,99504.35
2018-03-08T03:45:24.649Z,99507.97
2018-03-08T03:47:52.247Z,99500.23
2018-03-08T03:50:20.478Z,99503.75
2018-03-08T03:52:48.077Z,99503.30
2018-03-08T03:55:15.684Z,99507.08
2018-03-08T03:57:43.278Z,99506.72
2018-03-08T04:00:10.877Z,99502.33
2018-03-08T04:02:38.484Z,99506.75
2018-03-08T04:05:06.076Z,99511.84
2018-03-08T04:07:33.685Z,99513.86
2018-03-08T04:10:01.369Z,99509.61
2018-03-08T04:12:28.965Z,99513.80
2018-03-08T04:14:56.591Z,99508.55
2018-03-08T04:17:24.359Z,99516.18
2018-03-08T04:19:52.223Z,99510.39
2018-03-08T04:22:19.959Z,99515.67
2018-03-08T04:24:47.680Z,99512.06
2018-03-08T04:27:15.294Z,99530.36
2018-03-08T04:29:42.976Z,99523.38
2018-03-08T04:32:10.574Z,99526.33
2018-03-08T04:34:38.274Z,99523.59
2018-03-08T04:37:05.964Z,99523.89
2018-03-08T04:39:33.644Z,99523.91
2018-03-08T04:42:01.333Z,99524.56
2018-03-08T04:44:28.956Z,99530.45
2018-03-08T04:46:56.691Z,99532.39
2018-03-08T04:49:24.387Z,99525.30
2018-03-08T04:51:52.064Z,99529.48
2018-03-08T04:54:19.786Z,99528.00
2018-03-08T04:56:47.450Z,99529.87
2018-03-08T04:59:15.319Z,99529.86
2018-03-08T05:01:43.107Z,99527.09
2018-03-08T05:04:10.782Z,99535.50
2018-03-08T05:06:38.471Z,99532.38
2018-03-08T05:09:06.169Z,99536.55
2018-03-08T05:11:33.859Z,99540.12
2018-03-08T05:14:01.538Z,99545.23
2018-03-08T05:16:29.268Z,99546.81
2018-03-08T05:18:56.960Z,99543.55
2018-03-08T05:21:25.298Z,99552.55
2018-03-08T05:23:53.005Z,99553.38
2018-03-08T05:26:20.690Z,99553.14
2018-03-08T05:28:48.391Z,99559.11
2018-03-08T05:31:16.188Z,99569.22
2018-03-08T05:33:43.870Z,99564.38
2018-03-08T05:36:11.550Z,99565.92
2018-03-08T05:38:39.238Z,99569.20
2018-03-08T05:41:06.936Z,99570.05
2018-03-08T05:43:34.624Z,99567.33
2018-03-08T05:46:02.312Z,99570.30
2018-03-08T05:48:30.007Z,99571.52
2018-03-08T05:50:57.690Z,99575.84
2018-03-08T05:53:25.289Z,99576.09
2018-03-08T05:55:52.895Z,99576.45
2018-03-08T05:58:20.580Z,99578.58
2018-03-08T06:00:48.224Z,99584.20
2018-03-08T06:03:15.876Z,99595.30
2018-03-08T06:05:43.557Z,99597.09
2018-03-08T06:08:11.161Z,99598.56
2018-03-08T06:10:38.895Z,99605.90
2018-03-08T06:13:06.761Z,99606.46
2018-03-08T06:15:34.504Z,99611.70
2018-03-08T06:18:02.318Z,99610.52
2018-03-08T06:20:30.480Z,99613.23
2018-03-08T06:22:58.124Z,99613.42
2018-03-08T06:25:25.676Z,99619.60
2018-03-08T06:27:53.226Z,99626.23
2018-03-08T06:30:20.782Z,99623.34
2018-03-08T06:32:48.330Z,99622.33
2018-03-08T06:35:15.886Z,99626.80
2018-03-08T06:37:43.467Z,99628.37
2018-03-08T06:40:11.017Z,99629.97
2018-03-08T06:42:38.614Z,99636.77
2018-03-08T06:45:06.166Z,99643.30
2018-03-08T06:47:33.710Z,99642.67
2018-03-08T06:50:01.268Z,99648.94
2018-03-08T06:52:28.821Z,99648.77
2018-03-08T06:54:56.372Z,99655.88
2018-03-08T06:57:23.926Z,99658.45
2018-03-08T06:59:51.482Z,99664.12
2018-03-08T07:02:19.045Z,99661.88
2018-03-08T07:04:46.595Z,99667.98
2018-03-08T07:07:14.141Z,99670.91
2018-03-08T07:09:41.688Z,99664.94
2018-03-08T07:12:09.235Z,99668.70
2018-03-08T07:14:36.789Z,99668.25
2018-03-08T07:17:04.351Z,99676.53
2018-03-08T07:19:31.931Z,99671.16
2018-03-08T07:21:59.483Z,99678.83
2018-03-08T07:24:27.064Z,99684.84
2018-03-08T07:26:54.609Z,99688.84
2018-03-08T07:29:22.156Z,99684.41
2018-03-08T07:31:49.716Z,99684.52
2018-03-08T07:34:17.274Z,99692.52
2018-03-08T07:36:44.827Z,99695.03
2018-03-08T07:39:12.372Z,99699.19
2018-03-08T07:41:39.927Z,99699.13
2018-03-08T07:44:07.477Z,99697.72
2018-03-08T07:46:35.033Z,99699.58
2018-03-08T07:49:02.620Z,99697.45
2018-03-08T07:51:30.176Z,99700.48
2018-03-08T07:53:57.724Z,99704.97
2018-03-08T07:56:25.279Z,99705.72
2018-03-08T07:58:52.838Z,99710.26
2018-03-08T08:01:20.419Z,99714.84
2018-03-08T08:03:47.967Z,99716.09
2018-03-08T08:06:27.489Z,99724.67
2018-03-08T08:09:09.991Z,99724.36
2018-03-08T08:11:37.580Z,99725.56
2018-03-08T08:14:05.135Z,99732.47
2018-03-08T08:16:32.692Z,99733.31
2018-03-08T08:19:00.261Z,99735.51
2018-03-08T08:21:27.817Z,99737.66
2018-03-08T08:23:55.373Z,99740.06
2018-03-08T08:26:22.924Z,99738.37
2018-03-08T08:28:50.476Z,99744.53
2018-03-08T08:31:18.027Z,99746.38
2018-03-08T08:33:45.578Z,99750.41
2018-03-08T08:36:13.128Z,99752.27
2018-03-08T08:38:40.680Z,99750.91
2018-03-08T08:41:08.234Z,99759.44
2018-03-08T08:43:35.808Z,99757.56
2018-03-08T08:46:03.361Z,99765.43
2018-03-08T08:48:30.917Z,99763.17
2018-03-08T08:50:58.510Z,99766.80
2018-03-08T08:53:26.042Z,99771.17
2018-03-08T08:55:53.641Z,99770.05
2018-03-08T08:58:21.195Z,99782.52
2018-03-08T09:00:48.750Z,99783.88
2018-03-08T09:03:16.300Z,99782.33
2018-03-08T09:05:43.846Z,99790.14
2018-03-08T09:08:11.400Z,99784.23
2018-03-08T09:10:38.950Z,99797.42
2018-03-08T09:13:06.504Z,99791.70
2018-03-08T09:15:34.056Z,99797.97
2018-03-08T09:18:01.603Z,99806.75
2018-03-08T09:20:29.159Z,99805.48
2018-03-08T09:22:56.744Z,99812.34
2018-03-08T09:25:24.290Z,99809.38
2018-03-08T09:27:51.877Z,99808.98
2018-03-08T09:30:19.901Z,99813.73
2018-03-08T09:32:47.456Z,99811.98
2018-03-08T09:35:15.012Z,99815.82
2018-03-08T09:37:42.562Z,99824.80
2018-03-08T09:40:10.112Z,99824.47
2018-03-08T09:42:37.661Z,99831.67
2018-03-08T09:45:05.216Z,99832.81
2018-03-08T09:47:32.819Z,99844.49
2018-03-08T09:50:00.375Z,99835.56
2018-03-08T09:52:27.930Z,99841.21
2018-03-08T09:54:55.480Z,99839.00
2018-03-08T09:57:23.040Z,99837.55
2018-03-08T09:59:50.594Z,99838.42
2018-03-08T10:02:18.152Z,99836.37
2018-03-08T10:04:45.704Z,99842.92
2018-03-08T10:07:13.252Z,99845.93
2018-03-08T10:09:40.805Z,99847.41
2018-03-08T10:12:08.355Z,99843.58
2018-03-08T10:14:35.903Z,99846.42
2018-03-08T10:17:03.492Z,99848.03
2018-03-08T10:19:31.040Z,99851.49
2018-03-08T10:21:58.642Z,99864.60
2018-03-08T10:24:26.194Z,99869.80
2018-03-08T10:26:53.747Z,99868.52
2018-03-08T10:29:21.308Z,99871.06
2018-03-08T10:31:48.866Z,99872.09
2018-03-08T10:34:16.422Z,99868.09
2018-03-08T10:36:43.984Z,99869.84
2018-03-08T10:41:45.321Z,99876.83
2018-03-08T10:44:06.731Z,99886.62
2018-03-08T10:46:34.278Z,99878.89
2018-03-08T10:51:29.347Z,99890.16
2018-03-08T10:53:56.890Z,99892.80
2018-03-08T10:56:24.484Z,99885.52
2018-03-08T10:58:52.041Z,99895.33
2018-03-08T11:01:25.556Z,99893.80
2018-03-08T11:03:55.035Z,99900.02
2018-03-08T11:06:28.576Z,99898.59
2018-03-08T11:08:56.134Z,99895.59
2018-03-08T11:11:23.691Z,99898.62
2018-03-08T11:13:51.934Z,99900.19
2018-03-08T11:16:19.522Z,99898.88
2018-03-08T11:18:47.072Z,99895.45
2018-03-08T11:21:14.685Z,99900.30
2018-03-08T11:23:42.239Z,99898.32
2018-03-08T11:26:09.789Z,99909.32
2018-03-08T11:28:37.350Z,99906.05
2018-03-08T11:31:04.911Z,99902.39
2018-03-08T11:33:32.460Z,99905.82
2018-03-08T11:36:00.013Z,99900.41
2018-03-08T11:38:27.558Z,99903.29
2018-03-08T11:40:55.114Z,99896.58
2018-03-08T11:43:22.669Z,99900.76
2018-03-08T11:45:50.227Z,99897.34
2018-03-08T11:48:17.778Z,99895.52
2018-03-08T11:50:45.336Z,99896.63
2018-03-08T11:53:12.889Z,99888.41
2018-03-08T11:55:40.514Z,99895.13
2018-03-08T11:58:08.021Z,99887.99
2018-03-08T12:00:35.579Z,99887.06
2018-03-08T12:03:03.134Z,99887.55
2018-03-08T12:05:30.679Z,99880.22
2018-03-08T12:07:58.232Z,99884.67
2018-03-08T12:10:25.787Z,99887.09
2018-03-08T12:12:53.350Z,99890.07
2018-03-08T12:15:21.695Z,99891.28
2018-03-08T12:17:49.243Z,99893.56
2018-03-08T12:20:16.824Z,99888.34
2018-03-08T12:22:44.407Z,99888.91
2018-03-08T12:25:11.960Z,99884.16
2018-03-08T12:27:39.520Z,99889.42
2018-03-08T12:30:07.083Z,99892.04
2018-03-08T12:32:34.637Z,99882.44
2018-03-08T12:35:03.026Z,99875.40
2018-03-08T12:37:30.624Z,99887.66
2018-03-08T12:39:58.177Z,99892.83
2018-03-08T12:42:25.728Z,99884.45
2018-03-08T12:44:53.275Z,99886.95
2018-03-08T12:47:20.828Z,99892.18
2018-03-08T12:49:48.375Z,99893.02
2018-03-08T12:52:15.928Z,99891.42
2018-03-08T12:54:43.519Z,99887.95
2018-03-08T12:57:11.067Z,99884.50
2018-03-08T12:59:38.656Z,99884.13
2018-03-08T13:02:06.210Z,99880.02
2018-03-08T13:04:33.796Z,99882.16
2018-03-08T13:07:01.385Z,99894.48
2018-03-08T13:09:28.930Z,99881.80
2018-03-08T13:11:56.482Z,99880.22
2018-03-08T13:14:24.046Z,99877.68
2018-03-08T13:16:51.632Z,99882.43
2018-03-08T13:19:19.193Z,99874.20
2018-03-08T13:21:46.743Z,99878.44
2018-03-08T13:24:14.308Z,99878.28
2018-03-08T13:26:41.903Z,99874.85
2018-03-08T13:29:09.463Z,99874.38
2018-03-08T13:31:37.040Z,99871.66
2018-03-08T13:34:04.602Z,99876.25
2018-03-08T13:36:32.195Z,99869.35
2018-03-08T13:38:59.749Z,99866.13
2018-03-08T13:41:27.338Z,99871.20
2018-03-08T13:43:54.893Z,99871.81
2018-03-08T13:46:22.488Z,99863.63
2018-03-08T13:48:50.059Z,99867.36
2018-03-08T13:51:17.617Z,99867.11
2018-03-08T13:53:45.187Z,99865.75
2018-03-08T13:56:12.733Z,99862.38
2018-03-08T13:58:40.317Z,99866.06
2018-03-08T14:01:07.858Z,99861.54
2018-03-08T14:03:35.435Z,99857.13
2018-03-08T14:06:02.988Z,99868.71
2018-03-08T14:08:30.618Z,99859.67
2018-03-08T14:10:58.159Z,99853.93
2018-03-08T14:13:25.752Z,99862.28
2018-03-08T14:15:53.305Z,99860.98
2018-03-08T14:18:20.895Z,99862.75
2018-03-08T14:20:48.451Z,99860.00
2018-03-08T14:23:15.998Z,99859.87
2018-03-08T14:25:43.560Z,99849.45
2018-03-08T14:28:11.112Z,99849.54
2018-03-08T14:30:38.660Z,99858.62
2018-03-08T14:33:06.220Z,99856.15
2018-03-08T14:35:33.771Z,99851.20
2018-03-08T14:38:01.311Z,99847.52
2018-03-08T14:40:28.867Z,99853.16
2018-03-08T14:42:56.421Z,99846.74
2018-03-08T14:45:23.973Z,99849.11
2018-03-08T14:47:51.542Z,99846.84
2018-03-08T14:50:20.429Z,99849.59
2018-03-08T14:52:47.972Z,99852.67
2018-03-08T14:55:15.523Z,99846.20
2018-03-08T14:57:43.124Z,99844.17
2018-03-08T15:00:10.678Z,99848.91
2018-03-08T15:02:38.280Z,99848.37
2018-03-08T15:05:05.823Z,99847.70
2018-03-08T15:07:33.369Z,99844.88
2018-03-08T15:10:00.919Z,99841.65
2018-03-08T15:12:28.472Z,99835.67
2018-03-08T15:14:56.016Z,99837.06
2018-03-08T15:17:23.560Z,99835.73
2018-03-08T15:19:51.115Z,99836.38
2018-03-08T15:22:18.666Z,99838.13
2018-03-08T15:24:46.209Z,99835.90
2018-03-08T15:27:13.759Z,99831.01
2018-03-08T15:29:41.327Z,99828.91
2018-03-08T15:32:08.875Z,99825.09
2018-03-08T15:34:36.420Z,99824.22
2018-03-08T15:37:03.970Z,99830.13
2018-03-08T15:39:31.516Z,99822.00
2018-03-08T15:41:59.059Z,99819.44
2018-03-08T15:44:26.600Z,99822.75
2018-03-08T15:46:54.144Z,99825.75
2018-03-08T15:49:21.734Z,99818.13
2018-03-08T15:51:49.275Z,99826.13
2018-03-08T15:54:16.890Z,99827.33
2018-03-08T15:56:44.435Z,99827.88
2018-03-08T15:59:11.996Z,99828.54
2018-03-08T16:01:39.610Z,99829.55
2018-03-08T16:04:07.197Z,99824.22
2018-03-08T16:06:46.563Z,99821.52
2018-03-08T16:12:12.842Z,99822.64
2018-03-08T16:14:40.376Z,99815.83
2018-03-08T16:17:07.919Z,99823.33
2018-03-08T16:19:35.468Z,99814.71
2018-03-08T16:22:03.047Z,99817.41
2018-03-08T16:24:30.590Z,99813.33
2018-03-08T16:26:58.169Z,99818.23
2018-03-08T16:29:25.809Z,99816.44
2018-03-08T16:31:53.335Z,99815.31
2018-03-08T16:34:20.915Z,99820.30
2018-03-08T16:36:48.455Z,99819.56
2018-03-08T16:39:15.998Z,99813.47
2018-03-08T16:41:43.589Z,99823.52
2018-03-08T16:44:11.132Z,99819.73
2018-03-08T16:46:38.714Z,99820.62
2018-03-08T16:49:06.299Z,99818.28
2018-03-08T16:51:33.847Z,99824.34
2018-03-08T16:54:01.458Z,99826.79
2018-03-08T16:56:29.027Z,99814.20
2018-03-08T16:58:56.624Z,99818.25
2018-03-08T17:01:24.167Z,99810.73
2018-03-08T17:03:51.960Z,99817.00
2018-03-08T17:06:19.500Z,99821.73
2018-03-08T17:08:47.159Z,99818.44
2018-03-08T17:11:14.702Z,99811.97
2018-03-08T17:13:42.284Z,99812.66
2018-03-08T17:16:09.822Z,99816.47
2018-03-08T17:18:37.369Z,99817.05
2018-03-08T17:21:04.932Z,99815.86
2018-03-08T17:23:32.468Z,99820.75
2018-03-08T17:26:00.008Z,99812.75
2018-03-08T17:28:27.578Z,99818.52
2018-03-08T17:30:55.162Z,99819.23
2018-03-08T17:33:22.703Z,99823.17
2018-03-08T17:35:50.289Z,99817.00
2018-03-08T17:38:17.833Z,99823.14
2018-03-08T17:40:45.446Z,99823.45
2018-03-08T17:43:13.774Z,99832.16
2018-03-08T17:45:41.364Z,99826.19
2018-03-08T17:48:08.917Z,99826.46
2018-03-08T17:50:36.452Z,99826.88
2018-03-08T17:53:03.989Z,99824.38
2018-03-08T17:55:31.571Z,99822.36
2018-03-08T17:57:59.151Z,99823.77
2018-03-08T18:00:27.721Z,99822.77
2018-03-08T18:02:55.276Z,99819.45
2018-03-08T18:05:22.845Z,99816.03
2018-03-08T18:07:50.379Z,99818.93
2018-03-08T18:10:17.919Z,99818.45
2018-03-08T18:12:45.858Z,99817.69
2018-03-08T18:15:13.391Z,99821.57
2018-03-08T18:17:40.931Z,99823.44
2018-03-08T18:20:08.523Z,99815.28
2018-03-08T18:22:36.071Z,99815.92
2018-03-08T18:25:03.608Z,99811.02
2018-03-08T18:27:31.259Z,99814.25
2018-03-08T18:29:58.799Z,99812.30
2018-03-08T18:32:26.350Z,99808.56
2018-03-08T18:34:53.923Z,99811.70
2018-03-08T18:37:21.471Z,99808.67
2018-03-08T18:39:49.012Z,99809.52
2018-03-08T18:42:16.550Z,99809.32
2018-03-08T18:44:44.088Z,99807.53
2018-03-08T18:47:11.623Z,99804.56
2018-03-08T18:49:39.162Z,99805.61
2018-03-08T18:52:06.703Z,99807.53
2018-03-08T18:54:34.279Z,99808.03
2018-03-08T18:57:01.815Z,99797.67
2018-03-08T18:59:29.395Z,99802.44
2018-03-08T19:01:56.934Z,99795.17
2018-03-08T19:04:24.514Z,99789.34
2018-03-08T19:06:52.128Z,99786.93
2018-03-08T19:09:19.667Z,99784.34
2018-03-08T19:11:47.257Z,99776.58
2018-03-08T19:14:14.795Z,99772.53
2018-03-08T19:16:42.342Z,99777.42
2018-03-08T19:19:09.879Z,99766.46
2018-03-08T19:21:37.418Z,99765.77
2018-03-08T19:24:04.967Z,99764.91
2018-03-08T19:26:32.517Z,99767.35
2018-03-08T19:29:00.091Z,99764.63
2018-03-08T19:31:28.614Z,99763.49
2018-03-08T19:33:56.187Z,99765.73
2018-03-08T19:36:23.728Z,99761.45
2018-03-08T19:38:51.313Z,99760.08
2018-03-08T19:41:18.902Z,99754.55
2018-03-08T19:43:46.438Z,99745.98
2018-03-08T19:46:13.989Z,99738.97
2018-03-08T19:48:41.567Z,99747.39
2018-03-08T19:51:09.102Z,99742.69
2018-03-08T19:53:36.638Z,99743.29
2018-03-08T19:56:04.186Z,99752.33
2018-03-08T19:58:31.766Z,99744.72
2018-03-08T20:00:59.310Z,99747.63
2018-03-08T20:03:26.890Z,99748.47
2018-03-08T20:05:54.428Z,99742.41
2018-03-08T20:08:22.015Z,99746.45
2018-03-08T20:10:49.559Z,99743.88
2018-03-08T20:13:17.106Z,99747.31
2018-03-08T20:15:44.643Z,99742.03
2018-03-08T20:18:12.179Z,99741.69
2018-03-08T20:20:40.705Z,99747.28
2018-03-08T20:23:08.277Z,99754.81
2018-03-08T20:25:35.869Z,99742.03
2018-03-08T20:28:03.407Z,99739.02
2018-03-08T20:30:30.947Z,99738.67
2018-03-08T20:32:58.491Z,99728.61
2018-03-08T20:35:26.050Z,99730.38
2018-03-08T20:37:53.602Z,99736.58
2018-03-08T20:40:21.138Z,99730.09
2018-03-08T20:42:49.644Z,99736.67
2018-03-08T20:45:17.184Z,99731.29
2018-03-08T20:47:44.763Z,99722.11
2018-03-08T20:50:12.302Z,99725.66
2018-03-08T20:52:41.936Z,99724.37
2018-03-08T20:55:09.470Z,99712.84
2018-03-08T20:57:37.046Z,99721.02
2018-03-08T21:00:04.604Z,99712.34
2018-03-08T21:02:32.179Z,99716.69
2018-03-08T21:04:59.715Z,99715.73
2018-03-08T21:07:27.256Z,99714.55
2018-03-08T21:09:55.090Z,99704.72
2018-03-08T21:12:22.671Z,99709.94
2018-03-08T21:14:50.256Z,99709.48
2018-03-08T21:17:17.792Z,99715.34
2018-03-08T21:19:45.370Z,99718.17
2018-03-08T21:22:13.043Z,99723.16
2018-03-08T21:24:40.618Z,99721.72
2018-03-08T21:27:08.186Z,99722.40
2018-03-08T21:29:35.720Z,99725.02
2018-03-08T21:32:03.293Z,99726.36
2018-03-08T21:34:30.875Z,99718.97
2018-03-08T21:36:58.411Z,99727.13
2018-03-08T21:39:26.878Z,99726.89
2018-03-08T21:41:54.420Z,99716.16
2018-03-08T21:44:21.954Z,99715.08
2018-03-08T21:46:49.499Z,99725.72
2018-03-08T21:49:17.031Z,99716.60
2018-03-08T21:51:44.571Z,99719.34
2018-03-08T21:54:12.136Z,99717.10
2018-03-08T21:56:39.675Z,99712.67
2018-03-08T21:59:07.251Z,99711.56
2018-03-08T22:01:34.791Z,99708.87
2018-03-08T22:04:02.387Z,99702.92
2018-03-08T22:06:30.837Z,99694.77
2018-03-08T22:08:58.386Z,99706.34
2018-03-08T22:11:25.922Z,99712.97
2018-03-08T22:13:53.491Z,99706.56
2018-03-08T22:16:21.027Z,99714.31
2018-03-08T22:18:48.564Z,99717.58
2018-03-08T22:21:16.132Z,99713.50
2018-03-08T22:23:43.667Z,99714.88
2018-03-08T22:26:11.243Z,99691.08
2018-03-08T22:28:38.787Z,99674.72
2018-03-08T22:31:06.375Z,99669.37
2018-03-08T22:33:33.911Z,99654.86
2018-03-08T22:36:01.451Z,99644.67
2018-03-08T22:38:28.999Z,99639.54
2018-03-08T22:40:56.544Z,99639.57
2018-03-08T22:43:24.078Z,99638.27
2018-03-08T22:45:51.644Z,99630.09
2018-03-08T22:48:19.188Z,99631.20
2018-03-08T22:50:46.726Z,99637.45
2018-03-08T22:53:14.266Z,99631.86
2018-03-08T22:55:41.806Z,99622.78
2018-03-08T22:58:09.345Z,99619.89
2018-03-08T23:00:36.893Z,99619.98
2018-03-08T23:03:10.140Z,99619.47
2018-03-08T23:05:37.706Z,99622.06
2018-03-08T23:08:11.305Z,99621.00
2018-03-08T23:10:38.855Z,99619.16
2018-03-08T23:13:06.398Z,99617.68
2018-03-08T23:15:33.943Z,99621.42
2018-03-08T23:18:02.362Z,99625.58
2018-03-08T23:20:29.950Z,99642.67
2018-03-08T23:22:57.490Z,99635.67
2018-03-08T23:25:25.030Z,99646.44
2018-03-08T23:31:09.608Z,99659.13
2018-03-08T23:39:45.619Z,99669.94
2018-03-08T23:45:22.873Z,99676.34
2018-03-08T23:47:52.316Z,99680.61
2018-03-08T23:56:07.810Z,99715.92
2018-03-08T23:58:36.344Z,99721.48
